Time;durP1;ratioP1;P1;durP2;ratioP2;P2;SDS_P1;SDS_P2;PMS_P1;PMS_P2;Temp;Humidity;BMP_temperature;BMP_pressure;BME280_temperature;BME280_humidity;BME280_pressure;Samples;Min_cycle;Max_cycle;Signal;HPM_P1;HPM_P2
2021/12/31 00:01:10;;;;;;;11.23;1.73;;;11.80;99.90;;;;;;5026853;28;20068;-85
2021/12/31 00:03:35;;;;;;;15.60;1.50;;;12.00;99.90;;;;;;5042343;28;20034;-84
2021/12/31 00:06:01;;;;;;;10.25;1.73;;;12.10;99.90;;;;;;5024448;28;20045;-84
2021/12/31 00:08:27;;;;;;;6.05;1.02;;;11.90;99.90;;;;;;5044548;28;20038;-84
2021/12/31 00:10:59;;;;;;;6.05;1.10;;;11.80;99.90;;;;;;5040114;28;20076;-83
2021/12/31 00:13:28;;;;;;;9.13;1.67;;;11.90;99.90;;;;;;5042027;28;20041;-84
2021/12/31 00:15:54;;;;;;;12.00;1.75;;;11.90;99.90;;;;;;5041950;28;20052;-84
2021/12/31 00:18:19;;;;;;;6.85;1.33;;;11.80;99.90;;;;;;5041462;28;20045;-82
2021/12/31 00:20:45;;;;;;;11.25;1.15;;;12.00;99.90;;;;;;5041985;28;20064;-82
2021/12/31 00:23:13;;;;;;;5.50;0.90;;;12.20;99.90;;;;;;5042395;28;20045;-85
2021/12/31 00:25:41;;;;;;;9.63;1.42;;;12.20;99.90;;;;;;5025046;28;20571;-84
2021/12/31 00:28:09;;;;;;;14.32;2.25;;;12.10;99.90;;;;;;5045197;28;20045;-84
2021/12/31 00:30:35;;;;;;;6.45;1.02;;;11.80;99.90;;;;;;5045010;28;20044;-81
2021/12/31 00:33:02;;;;;;;6.65;1.55;;;12.10;99.90;;;;;;5026416;28;20515;-83
2021/12/31 00:35:32;;;;;;;8.00;1.77;;;11.80;99.90;;;;;;5026652;28;20044;-85
2021/12/31 00:37:58;;;;;;;10.23;1.33;;;11.60;99.90;;;;;;5042677;28;20068;-83
2021/12/31 00:40:23;;;;;;;5.25;0.90;;;11.90;99.90;;;;;;5041606;28;20072;-85
2021/12/31 00:42:49;;;;;;;9.65;0.93;;;11.50;99.90;;;;;;5041430;28;20043;-85
2021/12/31 00:45:18;;;;;;;14.02;1.92;;;11.60;99.90;;;;;;5026232;28;20037;-82
2021/12/31 00:47:44;;;;;;;8.77;2.42;;;11.60;99.90;;;;;;5041686;28;20064;-84
2021/12/31 00:50:11;;;;;;;5.32;0.82;;;11.60;99.90;;;;;;5041158;28;20049;-82
2021/12/31 00:52:38;;;;;;;8.05;1.00;;;11.60;99.90;;;;;;5041301;28;20063;-83
2021/12/31 00:55:04;;;;;;;8.75;1.60;;;11.60;99.90;;;;;;5024264;28;20436;-83
2021/12/31 00:57:30;;;;;;;8.32;1.10;;;11.50;99.90;;;;;;5044315;28;20079;-84
2021/12/31 00:59:56;;;;;;;7.85;1.15;;;11.50;99.90;;;;;;5026687;28;20076;-84
2021/12/31 01:02:25;;;;;;;12.07;1.08;;;11.50;99.90;;;;;;5042125;28;20045;-83
2021/12/31 01:04:50;;;;;;;12.52;1.30;;;11.70;99.90;;;;;;5040887;28;20045;-84
2021/12/31 01:07:16;;;;;;;7.78;1.42;;;11.50;99.90;;;;;;5045313;28;20075;-83
2021/12/31 01:09:42;;;;;;;12.27;1.58;;;11.90;99.90;;;;;;5023302;28;20448;-84
2021/12/31 01:12:10;;;;;;;8.77;1.60;;;11.60;99.90;;;;;;5023514;28;20392;-84
2021/12/31 01:14:41;;;;;;;13.50;1.65;;;11.50;99.90;;;;;;5043076;28;20537;-84
2021/12/31 01:17:11;;;;;;;10.55;1.45;;;11.70;99.90;;;;;;5037931;28;20095;-83
2021/12/31 01:19:45;;;;;;;6.47;0.90;;;11.90;99.90;;;;;;5046887;28;20810;-84
2021/12/31 01:22:24;;;;;;;7.07;1.10;;;11.50;99.90;;;;;;5041051;28;20514;-82
2021/12/31 01:24:50;;;;;;;10.65;1.33;;;11.60;99.90;;;;;;5043745;28;20095;-84
2021/12/31 01:27:16;;;;;;;10.50;1.15;;;11.70;99.90;;;;;;5044190;28;20102;-83
2021/12/31 01:29:42;;;;;;;17.30;2.95;;;11.50;99.90;;;;;;5025313;28;20488;-84
2021/12/31 01:32:08;;;;;;;12.32;1.88;;;11.70;99.90;;;;;;5021604;28;20041;-84
2021/12/31 01:34:34;;;;;;;7.07;1.00;;;12.30;99.90;;;;;;5040566;28;20512;-83
2021/12/31 01:37:00;;;;;;;10.55;1.08;;;11.60;99.90;;;;;;5043110;28;20076;-84
2021/12/31 01:39:26;;;;;;;12.38;1.35;;;11.70;99.90;;;;;;5043836;28;20037;-82
2021/12/31 01:41:54;;;;;;;13.52;1.42;;;11.90;99.90;;;;;;5042939;28;20048;-84
2021/12/31 01:44:22;;;;;;;11.73;1.55;;;11.70;99.90;;;;;;5040756;28;20037;-84
2021/12/31 01:47:00;;;;;;;8.10;1.95;;;12.10;99.90;;;;;;5047315;28;20454;-84
2021/12/31 01:49:34;;;;;;;6.88;0.90;;;11.00;99.90;;;;;;5022172;28;20076;-84
2021/12/31 01:52:01;;;;;;;13.57;1.80;;;12.30;99.90;;;;;;5045104;28;20045;-83
2021/12/31 01:54:28;;;;;;;10.18;1.15;;;11.70;99.90;;;;;;5040438;28;20034;-81
2021/12/31 01:56:55;;;;;;;8.23;1.33;;;11.70;99.90;;;;;;5039279;28;20514;-82
2021/12/31 01:59:21;;;;;;;16.27;1.58;;;11.70;99.90;;;;;;5032427;28;20669;-83
2021/12/31 02:01:47;;;;;;;9.85;1.23;;;11.90;99.90;;;;;;5040235;28;20069;-83
2021/12/31 02:04:13;;;;;;;11.30;1.77;;;12.00;99.90;;;;;;5040085;28;20486;-83
2021/12/31 02:06:39;;;;;;;6.53;1.25;;;12.10;99.90;;;;;;5019668;28;20491;-84
2021/12/31 02:09:06;;;;;;;9.68;1.00;;;11.80;99.90;;;;;;5023269;28;20044;-85
2021/12/31 02:11:32;;;;;;;9.60;1.20;;;12.10;99.90;;;;;;5024644;28;20046;-84
2021/12/31 02:14:00;;;;;;;11.15;1.45;;;11.70;99.90;;;;;;5043283;28;20072;-85
2021/12/31 02:16:25;;;;;;;7.95;1.33;;;12.10;99.90;;;;;;5024237;28;20041;-82
2021/12/31 02:18:51;;;;;;;5.18;1.23;;;12.20;99.90;;;;;;5040220;28;20050;-83
2021/12/31 02:21:17;;;;;;;5.70;1.38;;;12.10;99.90;;;;;;5040279;28;20175;-85
2021/12/31 02:23:46;;;;;;;8.82;1.48;;;11.80;99.90;;;;;;5040885;28;20081;-84
2021/12/31 02:26:12;;;;;;;8.02;1.20;;;12.00;99.90;;;;;;5039922;28;20496;-85
2021/12/31 02:28:39;;;;;;;3.25;1.13;;;11.90;99.90;;;;;;5040428;28;20120;-85
2021/12/31 02:31:05;;;;;;;8.43;1.30;;;12.10;99.90;;;;;;5042944;28;20045;-85
2021/12/31 02:33:31;;;;;;;8.68;1.13;;;12.20;99.90;;;;;;5043126;28;20056;-84
2021/12/31 02:35:59;;;;;;;12.73;2.03;;;11.90;99.90;;;;;;5041912;28;20041;-84
2021/12/31 02:38:25;;;;;;;6.30;1.10;;;12.10;99.90;;;;;;5024770;28;20488;-85
2021/12/31 02:40:51;;;;;;;7.18;1.35;;;12.30;99.90;;;;;;5023167;28;20130;-84
2021/12/31 02:43:16;;;;;;;7.90;1.20;;;12.00;99.90;;;;;;5034965;28;20065;-84
2021/12/31 02:45:42;;;;;;;6.00;1.63;;;12.00;99.90;;;;;;5021627;28;20053;-82
2021/12/31 02:48:09;;;;;;;6.43;1.02;;;12.10;99.90;;;;;;5024840;28;20040;-85
2021/12/31 02:50:41;;;;;;;9.00;1.60;;;12.40;99.90;;;;;;5043812;28;20053;-84
2021/12/31 02:53:13;;;;;;;7.38;1.10;;;12.20;99.90;;;;;;5016338;28;20041;-84
2021/12/31 02:55:41;;;;;;;8.30;1.10;;;12.00;99.90;;;;;;5025851;28;20045;-84
2021/12/31 02:58:08;;;;;;;6.82;1.40;;;12.40;99.90;;;;;;5022646;28;20095;-84
2021/12/31 03:00:37;;;;;;;8.55;1.33;;;12.10;99.90;;;;;;5043268;28;20494;-83
2021/12/31 03:03:06;;;;;;;7.97;1.25;;;12.50;99.90;;;;;;5044976;28;20411;-84
2021/12/31 03:05:35;;;;;;;11.40;1.67;;;12.00;99.90;;;;;;5041597;28;20511;-84
2021/12/31 03:08:03;;;;;;;6.45;1.52;;;12.10;99.90;;;;;;5043793;28;20046;-84
2021/12/31 03:10:30;;;;;;;7.60;1.50;;;12.00;99.90;;;;;;5042243;28;20073;-84
2021/12/31 03:12:57;;;;;;;6.57;1.25;;;12.40;99.90;;;;;;5043388;28;20395;-84
2021/12/31 03:15:25;;;;;;;6.03;1.20;;;12.10;99.90;;;;;;5025329;28;20037;-83
2021/12/31 03:17:51;;;;;;;6.82;1.17;;;12.10;99.90;;;;;;5041042;28;20042;-82
2021/12/31 03:20:26;;;;;;;4.45;0.93;;;12.00;99.90;;;;;;5045270;28;20426;-84
2021/12/31 03:22:52;;;;;;;5.28;1.10;;;12.00;99.90;;;;;;5021082;28;20049;-82
2021/12/31 03:25:18;;;;;;;7.43;1.20;;;12.00;99.90;;;;;;5027040;28;20056;-84
2021/12/31 03:27:44;;;;;;;7.90;1.10;;;12.50;99.90;;;;;;5045799;28;20041;-81
2021/12/31 03:30:11;;;;;;;10.63;1.20;;;12.10;99.90;;;;;;5045384;28;20147;-84
2021/12/31 03:32:37;;;;;;;6.63;1.20;;;12.10;99.90;;;;;;5042911;28;20057;-84
2021/12/31 03:35:03;;;;;;;11.75;1.83;;;12.10;99.90;;;;;;5042944;28;20443;-83
2021/12/31 03:37:29;;;;;;;6.28;1.33;;;12.10;99.90;;;;;;5045660;28;20049;-83
2021/12/31 03:39:55;;;;;;;5.63;1.02;;;12.10;99.90;;;;;;5028239;28;20037;-83
2021/12/31 03:42:21;;;;;;;4.32;1.42;;;12.20;99.90;;;;;;5031529;28;20079;-84
2021/12/31 03:44:46;;;;;;;6.78;1.25;;;12.60;99.90;;;;;;5024937;28;20073;-84
2021/12/31 03:47:12;;;;;;;5.60;1.15;;;12.40;99.90;;;;;;5043065;28;20069;-83
2021/12/31 03:49:38;;;;;;;9.43;1.50;;;12.10;99.90;;;;;;5027532;28;20048;-84
2021/12/31 03:52:04;;;;;;;5.15;1.30;;;12.10;99.90;;;;;;5028981;28;20949;-84
2021/12/31 03:54:29;;;;;;;6.97;1.40;;;12.10;99.90;;;;;;5022035;28;20042;-85
2021/12/31 03:56:55;;;;;;;9.13;1.77;;;12.20;99.90;;;;;;5027958;28;20068;-82
2021/12/31 03:59:22;;;;;;;8.07;1.55;;;12.20;99.90;;;;;;5045473;28;20537;-82
2021/12/31 04:01:48;;;;;;;6.47;1.27;;;12.20;99.90;;;;;;5030165;28;20036;-84
2021/12/31 04:04:13;;;;;;;8.13;1.60;;;12.40;99.90;;;;;;5045878;28;20376;-83
2021/12/31 04:06:40;;;;;;;7.03;1.30;;;12.60;99.90;;;;;;5025885;28;20049;-83
2021/12/31 04:09:06;;;;;;;5.82;1.02;;;12.40;99.90;;;;;;5024464;28;20487;-84
2021/12/31 04:11:32;;;;;;;9.50;1.27;;;12.50;99.90;;;;;;5025071;28;20530;-84
2021/12/31 04:13:58;;;;;;;3.58;1.70;;;12.40;99.90;;;;;;5045367;28;20045;-83
2021/12/31 04:16:23;;;;;;;10.20;1.77;;;12.30;99.90;;;;;;5045885;28;20032;-84
2021/12/31 04:18:49;;;;;;;9.27;1.60;;;12.60;99.90;;;;;;5024940;28;20045;-83
2021/12/31 04:21:16;;;;;;;4.90;1.10;;;12.20;99.90;;;;;;5042637;28;20045;-83
2021/12/31 04:24:03;;;;;;;6.88;1.17;;;12.30;99.90;;;;;;5043227;28;20048;-83
2021/12/31 04:26:29;;;;;;;9.82;1.55;;;12.20;99.90;;;;;;5037639;28;20049;-84
2021/12/31 04:28:55;;;;;;;4.72;1.20;;;12.80;99.90;;;;;;5044251;28;20040;-84
2021/12/31 04:31:20;;;;;;;4.70;1.00;;;12.90;99.90;;;;;;5017817;28;20416;-84
2021/12/31 04:33:46;;;;;;;6.25;0.90;;;12.40;99.90;;;;;;5040633;28;20050;-83
2021/12/31 04:36:11;;;;;;;5.40;1.33;;;12.30;99.90;;;;;;5027960;28;20057;-83
2021/12/31 04:38:37;;;;;;;4.13;1.00;;;12.40;99.90;;;;;;5027191;28;20045;-84
2021/12/31 04:41:03;;;;;;;11.57;1.23;;;12.80;99.90;;;;;;5024067;28;20049;-83
2021/12/31 04:43:29;;;;;;;3.90;1.00;;;12.40;99.90;;;;;;5016016;28;20437;-84
2021/12/31 04:45:55;;;;;;;4.80;1.05;;;12.40;99.90;;;;;;5008871;28;20103;-83
2021/12/31 04:48:21;;;;;;;8.90;1.55;;;12.50;99.90;;;;;;5039731;28;20049;-83
2021/12/31 04:50:47;;;;;;;4.85;1.17;;;12.50;99.90;;;;;;5041390;28;20048;-82
2021/12/31 04:53:13;;;;;;;2.58;0.80;;;12.50;99.90;;;;;;5023888;28;20042;-84
2021/12/31 04:55:38;;;;;;;5.25;0.90;;;12.50;99.90;;;;;;5041094;28;20053;-84
2021/12/31 04:58:04;;;;;;;6.28;1.10;;;12.50;99.90;;;;;;5025289;28;20054;-84
2021/12/31 05:00:30;;;;;;;4.53;0.65;;;12.50;99.90;;;;;;5026606;28;20056;-84
2021/12/31 05:02:55;;;;;;;9.90;1.50;;;12.50;99.90;;;;;;5042057;28;20129;-84
2021/12/31 05:05:21;;;;;;;3.08;1.00;;;12.50;99.90;;;;;;5040787;28;20068;-84
2021/12/31 05:07:47;;;;;;;8.68;1.02;;;12.60;99.90;;;;;;5022843;28;20076;-83
2021/12/31 05:10:14;;;;;;;4.18;0.77;;;12.60;99.90;;;;;;5023677;28;20456;-83
2021/12/31 05:12:40;;;;;;;5.57;1.10;;;12.50;99.90;;;;;;5045014;28;20112;-84
2021/12/31 05:15:09;;;;;;;3.85;0.88;;;12.50;99.90;;;;;;5042711;28;20120;-84
2021/12/31 05:17:35;;;;;;;8.93;1.60;;;12.50;99.90;;;;;;5041039;28;20045;-82
2021/12/31 05:20:02;;;;;;;4.45;1.35;;;12.40;99.90;;;;;;5040876;28;20091;-84
2021/12/31 05:22:28;;;;;;;6.90;1.08;;;12.60;99.90;;;;;;5009658;28;20048;-83
2021/12/31 05:24:54;;;;;;;4.68;0.80;;;12.60;99.90;;;;;;5039238;28;20076;-82
2021/12/31 05:27:19;;;;;;;5.97;1.00;;;12.60;99.90;;;;;;5042951;28;20045;-84
2021/12/31 05:29:45;;;;;;;4.78;0.98;;;12.60;99.90;;;;;;5022721;28;20060;-82
2021/12/31 05:32:11;;;;;;;3.78;1.08;;;13.00;99.90;;;;;;5020695;28;20495;-82
2021/12/31 05:34:36;;;;;;;1.58;0.75;;;12.80;99.90;;;;;;5042793;28;20053;-82
2021/12/31 05:37:02;;;;;;;4.13;0.80;;;12.60;99.90;;;;;;5023443;28;20056;-82
2021/12/31 05:39:28;;;;;;;3.88;0.90;;;12.60;99.90;;;;;;5043289;28;20044;-82
2021/12/31 05:41:54;;;;;;;5.63;1.63;;;12.60;99.90;;;;;;5019194;28;20072;-82
2021/12/31 05:44:20;;;;;;;2.05;0.60;;;12.60;99.90;;;;;;5018156;28;20037;-82
2021/12/31 05:46:49;;;;;;;6.05;1.00;;;12.70;99.90;;;;;;5037657;28;20059;-84
2021/12/31 05:49:15;;;;;;;3.08;0.90;;;13.20;99.90;;;;;;5035936;28;20048;-82
2021/12/31 05:51:40;;;;;;;1.70;0.90;;;13.00;99.90;;;;;;5029761;28;20044;-82
2021/12/31 05:54:06;;;;;;;3.10;0.90;;;12.90;99.90;;;;;;5040234;28;20045;-82
2021/12/31 05:56:32;;;;;;;4.18;1.35;;;12.90;99.90;;;;;;5022193;28;20463;-83
2021/12/31 05:58:57;;;;;;;4.15;0.80;;;12.50;99.90;;;;;;5038554;28;20047;-84
2021/12/31 06:01:23;;;;;;;2.72;0.73;;;12.50;99.90;;;;;;5023859;28;20041;-83
2021/12/31 06:03:48;;;;;;;1.70;0.90;;;12.40;99.90;;;;;;5038723;28;20441;-81
2021/12/31 06:06:14;;;;;;;4.45;0.90;;;12.50;99.90;;;;;;5039888;28;20033;-81
2021/12/31 06:08:40;;;;;;;2.20;0.75;;;12.50;99.90;;;;;;5043682;28;20080;-84
2021/12/31 06:11:07;;;;;;;3.47;0.80;;;12.40;99.90;;;;;;5042440;28;20057;-83
2021/12/31 06:13:33;;;;;;;3.22;0.80;;;12.90;99.90;;;;;;5022547;28;20049;-84
2021/12/31 06:15:58;;;;;;;3.58;0.77;;;12.60;99.90;;;;;;5043671;28;20033;-84
2021/12/31 06:18:27;;;;;;;1.88;0.90;;;12.70;99.90;;;;;;5041902;28;20507;-84
2021/12/31 06:20:53;;;;;;;4.60;0.90;;;12.40;99.90;;;;;;5022254;28;20521;-84
2021/12/31 06:23:19;;;;;;;3.00;0.90;;;12.70;99.90;;;;;;5035310;28;20432;-84
2021/12/31 06:25:45;;;;;;;4.85;0.93;;;12.40;99.90;;;;;;5043287;28;20041;-82
2021/12/31 06:28:11;;;;;;;3.63;0.80;;;12.40;99.90;;;;;;5043182;28;20044;-84
2021/12/31 06:30:37;;;;;;;6.18;1.65;;;12.50;99.90;;;;;;5022231;28;20063;-84
2021/12/31 06:33:03;;;;;;;4.10;0.75;;;12.40;99.90;;;;;;5037045;28;20040;-83
2021/12/31 06:35:29;;;;;;;3.30;0.98;;;12.90;99.90;;;;;;5007299;28;20047;-85
2021/12/31 06:37:56;;;;;;;2.38;0.70;;;12.50;99.90;;;;;;5021664;28;20041;-84
2021/12/31 06:40:23;;;;;;;5.00;1.10;;;12.40;99.90;;;;;;5024653;28;20036;-84
2021/12/31 06:42:49;;;;;;;4.43;1.00;;;12.40;99.90;;;;;;5010516;28;20052;-84
2021/12/31 06:45:14;;;;;;;3.17;0.82;;;12.60;99.90;;;;;;5043130;28;20032;-83
2021/12/31 06:47:40;;;;;;;3.53;0.70;;;12.40;99.90;;;;;;5040149;28;20047;-84
2021/12/31 06:50:06;;;;;;;2.83;1.00;;;12.40;99.90;;;;;;5039780;28;20030;-83
2021/12/31 06:52:39;;;;;;;3.92;0.90;;;12.40;99.90;;;;;;5023211;28;20046;-84
2021/12/31 06:55:08;;;;;;;3.67;0.80;;;12.40;99.90;;;;;;5039838;28;20045;-84
2021/12/31 06:57:35;;;;;;;2.10;0.90;;;12.40;99.90;;;;;;5023470;28;20471;-84
2021/12/31 07:00:05;;;;;;;3.90;0.80;;;12.40;99.90;;;;;;5039784;28;20057;-84
2021/12/31 07:02:31;;;;;;;4.82;0.80;;;12.40;99.90;;;;;;5020721;28;20131;-83
2021/12/31 07:04:57;;;;;;;1.85;0.88;;;12.80;99.90;;;;;;5036030;28;20128;-83
2021/12/31 07:07:22;;;;;;;3.75;1.00;;;12.40;99.90;;;;;;5021958;28;20079;-82
2021/12/31 07:09:48;;;;;;;2.55;0.80;;;12.40;99.90;;;;;;5024132;28;20053;-83
2021/12/31 07:12:14;;;;;;;5.50;0.90;;;12.40;99.90;;;;;;5025685;28;20052;-83
2021/12/31 07:14:39;;;;;;;3.33;0.68;;;13.10;99.90;;;;;;5023752;28;20045;-82
2021/12/31 07:17:05;;;;;;;1.48;0.60;;;12.40;99.90;;;;;;5021576;28;20046;-83
2021/12/31 07:19:31;;;;;;;5.15;0.82;;;12.80;99.90;;;;;;5039205;28;20050;-81
2021/12/31 07:21:56;;;;;;;2.03;0.85;;;12.30;99.90;;;;;;5033915;28;20033;-82
2021/12/31 07:24:22;;;;;;;2.25;0.75;;;12.40;99.90;;;;;;5024988;28;20423;-82
2021/12/31 07:26:48;;;;;;;2.35;0.80;;;12.40;99.90;;;;;;5023288;28;20045;-83
2021/12/31 07:29:14;;;;;;;6.78;1.20;;;12.30;99.90;;;;;;5039320;28;20048;-82
2021/12/31 07:31:39;;;;;;;3.58;0.98;;;12.30;99.90;;;;;;5040074;28;20043;-81
2021/12/31 07:34:05;;;;;;;5.85;1.33;;;12.30;99.90;;;;;;5038265;28;20053;-83
2021/12/31 07:36:31;;;;;;;2.95;1.10;;;12.30;99.90;;;;;;5021418;28;20045;-83
2021/12/31 07:39:04;;;;;;;3.75;1.05;;;12.30;99.90;;;;;;5041175;28;20053;-82
2021/12/31 07:41:29;;;;;;;4.65;1.30;;;12.60;99.90;;;;;;5021753;28;20049;-83
2021/12/31 07:43:55;;;;;;;2.63;0.80;;;12.50;99.90;;;;;;5040007;28;20540;-84
2021/12/31 07:46:21;;;;;;;2.78;0.85;;;12.20;99.90;;;;;;5043462;28;20048;-84
2021/12/31 07:48:46;;;;;;;1.83;0.70;;;12.50;99.90;;;;;;5043066;28;20056;-83
2021/12/31 07:51:12;;;;;;;2.70;0.70;;;12.10;99.90;;;;;;5016320;28;20459;-83
2021/12/31 07:53:38;;;;;;;2.85;0.98;;;12.00;99.90;;;;;;5045933;28;20120;-85
2021/12/31 07:56:04;;;;;;;3.10;1.50;;;12.40;99.90;;;;;;5042495;28;20045;-84
2021/12/31 07:58:30;;;;;;;3.78;0.80;;;12.00;99.90;;;;;;5040761;28;20041;-84
2021/12/31 08:00:55;;;;;;;2.17;0.80;;;12.00;99.90;;;;;;5008909;28;20373;-85
2021/12/31 08:03:21;;;;;;;3.00;0.95;;;12.10;99.90;;;;;;5041240;28;20067;-86
2021/12/31 08:05:47;;;;;;;3.40;0.80;;;12.00;99.90;;;;;;5019988;28;20052;-84
2021/12/31 08:08:13;;;;;;;2.42;0.80;;;12.40;99.90;;;;;;5042202;28;20049;-87
2021/12/31 08:10:38;;;;;;;9.32;1.92;;;11.90;99.90;;;;;;5041959;28;20045;-87
2021/12/31 08:13:04;;;;;;;2.70;0.70;;;11.90;99.90;;;;;;5043728;28;20091;-84
2021/12/31 08:15:30;;;;;;;2.75;1.00;;;11.90;99.90;;;;;;5046156;28;20099;-86
2021/12/31 08:17:56;;;;;;;1.45;0.70;;;11.90;99.90;;;;;;5044458;28;20045;-86
2021/12/31 08:20:23;;;;;;;5.43;0.90;;;12.00;99.90;;;;;;5024028;28;20174;-87
2021/12/31 08:22:50;;;;;;;2.53;1.10;;;11.90;99.90;;;;;;5041884;28;20152;-87
2021/12/31 08:25:17;;;;;;;2.63;0.80;;;12.00;99.90;;;;;;5037083;28;20119;-85
2021/12/31 08:27:42;;;;;;;5.57;0.88;;;12.10;99.90;;;;;;5045436;28;20045;-85
2021/12/31 08:30:09;;;;;;;2.13;0.57;;;12.00;99.90;;;;;;5042291;28;20087;-84
2021/12/31 08:32:35;;;;;;;2.63;0.95;;;12.00;99.90;;;;;;5041883;28;20072;-86
2021/12/31 08:35:01;;;;;;;3.53;0.82;;;12.10;99.90;;;;;;5019220;28;20053;-85
2021/12/31 08:37:27;;;;;;;3.55;1.15;;;12.10;99.90;;;;;;5045111;28;20037;-85
2021/12/31 08:39:53;;;;;;;2.72;0.70;;;12.30;99.90;;;;;;5045087;28;20170;-87
2021/12/31 08:42:18;;;;;;;3.72;0.93;;;12.10;99.90;;;;;;5034714;28;20128;-86
2021/12/31 08:44:44;;;;;;;3.63;0.88;;;12.10;99.90;;;;;;5016254;28;20508;-85
2021/12/31 08:47:10;;;;;;;1.75;0.80;;;12.40;99.90;;;;;;5041748;28;20049;-85
2021/12/31 08:49:36;;;;;;;2.90;0.88;;;12.20;99.90;;;;;;5038465;28;20102;-86
2021/12/31 08:52:02;;;;;;;3.15;0.90;;;12.30;99.90;;;;;;5006747;28;20058;-86
2021/12/31 08:54:29;;;;;;;2.65;0.90;;;12.20;99.90;;;;;;5040017;28;20041;-85
2021/12/31 08:56:54;;;;;;;9.10;1.52;;;12.40;99.90;;;;;;5041126;28;20080;-86
2021/12/31 08:59:20;;;;;;;4.88;1.00;;;12.20;99.90;;;;;;5023805;28;20219;-86
2021/12/31 09:01:46;;;;;;;3.40;0.90;;;12.40;99.90;;;;;;5044501;28;20045;-85
2021/12/31 09:04:12;;;;;;;4.28;1.10;;;12.40;99.90;;;;;;5043540;28;20436;-84
2021/12/31 09:06:38;;;;;;;3.60;0.98;;;12.70;99.90;;;;;;5041760;28;20076;-87
2021/12/31 09:09:04;;;;;;;7.68;1.08;;;12.40;99.90;;;;;;5045412;28;20041;-86
2021/12/31 09:11:30;;;;;;;1.70;1.00;;;12.60;99.90;;;;;;5041358;28;20044;-89
2021/12/31 09:13:57;;;;;;;2.72;0.90;;;12.20;99.90;;;;;;5023377;28;20049;-85
2021/12/31 09:16:23;;;;;;;2.47;1.00;;;12.30;99.90;;;;;;5039558;28;20037;-89
2021/12/31 09:18:49;;;;;;;2.45;0.90;;;12.30;99.90;;;;;;5036953;28;20510;-89
2021/12/31 09:21:20;;;;;;;5.10;1.00;;;12.60;99.90;;;;;;5033611;28;20045;-87
2021/12/31 09:23:46;;;;;;;8.18;1.30;;;12.30;99.90;;;;;;5033645;28;20041;-85
2021/12/31 09:26:12;;;;;;;6.82;1.02;;;12.30;99.90;;;;;;5015864;28;20103;-87
2021/12/31 09:28:38;;;;;;;4.10;0.93;;;12.60;99.90;;;;;;5033454;28;20392;-88
2021/12/31 09:31:05;;;;;;;2.58;0.90;;;12.30;99.90;;;;;;5015481;28;20103;-86
2021/12/31 09:33:31;;;;;;;2.90;0.80;;;12.30;99.90;;;;;;5033325;28;20080;-88
2021/12/31 09:35:57;;;;;;;6.00;1.08;;;12.30;99.90;;;;;;5033515;28;20073;-86
2021/12/31 09:38:23;;;;;;;3.92;0.88;;;12.30;99.90;;;;;;5033248;28;20412;-86
2021/12/31 09:40:48;;;;;;;5.97;1.30;;;12.40;99.90;;;;;;5033279;28;20052;-86
2021/12/31 09:43:14;;;;;;;5.25;0.90;;;12.30;99.90;;;;;;5033248;28;20041;-87
2021/12/31 09:45:44;;;;;;;3.67;1.05;;;12.40;99.90;;;;;;5033139;28;20622;-87
2021/12/31 09:48:11;;;;;;;5.57;1.08;;;12.70;99.90;;;;;;5033243;28;20045;-87
2021/12/31 09:50:40;;;;;;;3.03;0.90;;;12.40;99.90;;;;;;5015703;28;20408;-87
2021/12/31 09:53:08;;;;;;;6.03;1.67;;;12.60;99.90;;;;;;5033106;28;20045;-88
2021/12/31 09:55:51;;;;;;;6.68;1.50;;;12.20;99.90;;;;;;5015037;28;20049;-86
2021/12/31 09:58:18;;;;;;;3.25;1.00;;;12.20;99.90;;;;;;5032767;28;20507;-86
2021/12/31 10:00:47;;;;;;;3.92;1.70;;;12.20;99.90;;;;;;5032768;28;20037;-86
2021/12/31 10:03:28;;;;;;;3.58;1.10;;;12.60;99.90;;;;;;5033177;28;20052;-87
2021/12/31 10:06:00;;;;;;;4.25;1.25;;;12.20;99.90;;;;;;5032948;28;20412;-86
2021/12/31 10:08:29;;;;;;;6.45;1.25;;;12.10;99.90;;;;;;5032182;28;20132;-84
2021/12/31 10:11:06;;;;;;;3.08;1.10;;;12.30;99.90;;;;;;5032679;28;20037;-84
2021/12/31 10:13:34;;;;;;;7.32;1.50;;;12.00;99.90;;;;;;5032794;28;20057;-84
2021/12/31 10:16:00;;;;;;;3.55;1.00;;;12.00;99.90;;;;;;5015471;28;20439;-83
2021/12/31 10:18:36;;;;;;;4.40;1.17;;;11.90;99.90;;;;;;5032987;28;20049;-83
2021/12/31 10:21:04;;;;;;;5.25;1.50;;;11.90;99.90;;;;;;5032475;28;20067;-83
2021/12/31 10:23:31;;;;;;;6.80;1.27;;;11.90;99.90;;;;;;5032414;28;20107;-84
2021/12/31 10:26:14;;;;;;;4.38;1.20;;;11.80;99.90;;;;;;5032488;28;20045;-83
2021/12/31 10:28:59;;;;;;;4.63;1.13;;;11.80;99.90;;;;;;5014691;28;20045;-84
2021/12/31 10:31:27;;;;;;;3.63;1.02;;;11.80;99.90;;;;;;5032713;28;20144;-84
2021/12/31 10:33:53;;;;;;;4.90;1.13;;;11.70;99.90;;;;;;5014723;28;20057;-84
2021/12/31 10:36:38;;;;;;;1.33;0.80;;;11.70;99.90;;;;;;4998265;28;20056;-86
2021/12/31 10:39:22;;;;;;;2.28;0.90;;;12.00;99.90;;;;;;5032450;28;20037;-86
2021/12/31 10:42:02;;;;;;;3.10;1.30;;;11.70;99.90;;;;;;5032185;28;20045;-86
2021/12/31 10:44:45;;;;;;;4.50;1.00;;;11.70;99.90;;;;;;5032163;28;20139;-87
2021/12/31 10:47:23;;;;;;;4.68;1.05;;;11.60;99.90;;;;;;5015132;28;20057;-86
2021/12/31 10:50:04;;;;;;;5.18;1.08;;;11.60;99.90;;;;;;5032341;28;20050;-85
2021/12/31 10:52:35;;;;;;;6.65;1.52;;;11.60;99.90;;;;;;5014741;28;20143;-88
2021/12/31 10:55:22;;;;;;;7.65;1.40;;;12.10;99.90;;;;;;5014617;28;20088;-86
2021/12/31 10:57:50;;;;;;;5.47;1.25;;;11.70;99.90;;;;;;5014625;28;20053;-87
2021/12/31 11:00:18;;;;;;;4.72;1.10;;;11.70;99.90;;;;;;5031832;28;20503;-87
2021/12/31 11:02:44;;;;;;;5.03;2.97;;;12.10;99.90;;;;;;5032194;28;20492;-86
2021/12/31 11:05:12;;;;;;;4.25;1.65;;;11.80;99.90;;;;;;5032232;28;20045;-85
2021/12/31 11:07:39;;;;;;;4.93;1.30;;;11.60;99.90;;;;;;5031973;28;20049;-84
2021/12/31 11:10:06;;;;;;;5.47;1.48;;;11.70;99.90;;;;;;5032034;28;20038;-85
2021/12/31 11:12:34;;;;;;;5.05;1.60;;;11.60;99.90;;;;;;4998029;28;20041;-88
2021/12/31 11:15:00;;;;;;;5.25;1.67;;;11.90;99.90;;;;;;5032236;28;20057;-87
2021/12/31 11:17:26;;;;;;;4.45;1.45;;;11.70;99.90;;;;;;5032090;28;20476;-86
2021/12/31 11:19:53;;;;;;;5.05;1.70;;;11.70;99.90;;;;;;5033048;28;20044;-86
2021/12/31 11:22:24;;;;;;;8.32;1.80;;;11.70;99.90;;;;;;5035758;28;20051;-87
2021/12/31 11:24:50;;;;;;;6.35;2.08;;;11.70;99.90;;;;;;5018562;28;20063;-86
2021/12/31 11:27:31;;;;;;;10.57;1.63;;;11.60;99.90;;;;;;5035849;28;20546;-87
2021/12/31 11:30:02;;;;;;;8.13;1.67;;;11.50;99.90;;;;;;5035841;28;20488;-84
2021/12/31 11:32:43;;;;;;;6.80;1.55;;;11.50;99.90;;;;;;5017858;28;20441;-84
2021/12/31 11:36:00;;;;;;;3.53;1.63;;;11.70;99.90;;;;;;5035772;28;20057;-85
2021/12/31 11:38:26;;;;;;;5.20;2.05;;;11.40;99.90;;;;;;4974539;28;20105;-84
2021/12/31 11:41:01;;;;;;;9.20;1.33;;;11.50;99.90;;;;;;4974476;28;20094;-84
2021/12/31 11:43:29;;;;;;;4.70;1.67;;;11.80;99.90;;;;;;4942228;28;20054;-84
2021/12/31 11:46:11;;;;;;;6.18;2.05;;;11.40;99.90;;;;;;4974312;28;20051;-84
2021/12/31 11:48:48;;;;;;;3.63;1.50;;;11.60;99.90;;;;;;4974338;28;20051;-84
2021/12/31 11:51:35;;;;;;;3.95;1.38;;;11.40;99.90;;;;;;4958317;28;20060;-84
2021/12/31 11:54:00;;;;;;;5.13;2.10;;;11.40;99.90;;;;;;4958437;28;20051;-85
2021/12/31 11:56:45;;;;;;;5.32;1.70;;;11.80;99.90;;;;;;4958094;28;20497;-85
2021/12/31 11:59:14;;;;;;;2.70;1.45;;;11.40;99.90;;;;;;4974400;28;20460;-85
2021/12/31 12:01:48;;;;;;;4.80;1.67;;;11.40;99.90;;;;;;4974005;28;20105;-84
2021/12/31 12:04:39;;;;;;;3.58;1.95;;;11.40;99.90;;;;;;4942205;28;20043;-85
2021/12/31 12:07:11;;;;;;;6.75;2.15;;;11.40;99.90;;;;;;4974194;28;20046;-84
2021/12/31 12:09:37;;;;;;;4.18;1.60;;;11.40;99.90;;;;;;5020976;28;20132;-85
2021/12/31 12:12:11;;;;;;;4.55;1.73;;;11.70;99.90;;;;;;5017358;28;20096;-84
2021/12/31 12:14:38;;;;;;;6.65;1.67;;;11.30;99.90;;;;;;5017191;28;20407;-84
2021/12/31 12:17:04;;;;;;;6.68;1.60;;;11.40;99.90;;;;;;5035005;28;20399;-85
2021/12/31 12:19:51;;;;;;;5.15;1.90;;;11.40;99.90;;;;;;5034910;28;20041;-85
2021/12/31 12:22:37;;;;;;;4.60;1.58;;;11.40;99.90;;;;;;5034703;28;20049;-87
2021/12/31 12:25:07;;;;;;;2.08;1.27;;;11.80;99.90;;;;;;5034589;28;20132;-84
2021/12/31 12:27:34;;;;;;;5.32;2.10;;;11.40;99.90;;;;;;5016822;28;20060;-84
2021/12/31 12:30:02;;;;;;;6.07;1.85;;;11.40;99.90;;;;;;5016820;28;20104;-87
2021/12/31 12:32:39;;;;;;;4.38;1.70;;;11.50;99.90;;;;;;5033674;28;20049;-85
2021/12/31 12:35:21;;;;;;;4.22;1.70;;;11.90;99.90;;;;;;5034583;28;20468;-85
2021/12/31 12:38:02;;;;;;;4.03;1.70;;;11.60;99.90;;;;;;5034309;28;20046;-86
2021/12/31 12:40:40;;;;;;;3.03;1.30;;;11.40;99.90;;;;;;5016516;28;20144;-85
2021/12/31 12:43:12;;;;;;;3.90;1.70;;;11.40;99.90;;;;;;5034489;28;20080;-85
2021/12/31 12:45:39;;;;;;;3.20;1.50;;;11.40;99.90;;;;;;5000249;28;20045;-86
2021/12/31 12:48:05;;;;;;;3.67;1.30;;;11.80;99.90;;;;;;5034335;28;20049;-85
2021/12/31 12:50:30;;;;;;;4.05;1.17;;;11.90;99.90;;;;;;5034032;28;20111;-85